Time;durP1;ratioP1;P1;durP2;ratioP2;P2;SDS_P1;SDS_P2;PMS_P1;PMS_P2;Temp;Humidity;BMP_temperature;BMP_pressure;BME280_temperature;BME280_humidity;BME280_pressure;Samples;Min_cycle;Max_cycle;Signal;HPM_P1;HPM_P2
2023/07/09 00:01:50;;;;;;;11.43;7.78;;;;;;;;;;4964924;28;20042;-84
2023/07/09 00:04:17;;;;;;;11.43;7.18;;;;;;;;;;4824557;23;20067;-59
2023/07/09 00:06:43;;;;;;;10.10;7.22;;;;;;;;;;5008153;23;20672;-61
2023/07/09 00:09:13;;;;;;;11.45;7.72;;;;;;;;;;4981473;28;20034;-60
2023/07/09 00:11:40;;;;;;;10.63;7.97;;;;;;;;;;4983436;28;20074;-59
2023/07/09 00:14:06;;;;;;;10.75;7.78;;;;;;;;;;4967423;28;20042;-60
2023/07/09 00:16:32;;;;;;;11.05;7.35;;;;;;;;;;4972919;28;20070;-60
2023/07/09 00:18:58;;;;;;;12.43;8.10;;;;;;;;;;4979083;28;20070;-59
2023/07/09 00:21:25;;;;;;;11.50;8.15;;;;;;;;;;4971238;28;20053;-59
2023/07/09 00:23:51;;;;;;;10.57;7.25;;;;;;;;;;4969169;28;20085;-59
2023/07/09 00:26:17;;;;;;;12.93;8.07;;;;;;;;;;4972634;28;20434;-58
2023/07/09 00:28:44;;;;;;;11.15;7.63;;;;;;;;;;4976357;28;20515;-58
2023/07/09 00:31:14;;;;;;;11.00;8.35;;;;;;;;;;4972158;28;20145;-58
2023/07/09 00:33:41;;;;;;;11.45;8.25;;;;;;;;;;4972973;28;20034;-57
2023/07/09 00:36:17;;;;;;;12.82;8.82;;;;;;;;;;5003807;23;20475;-58
2023/07/09 00:38:47;;;;;;;10.40;7.68;;;;;;;;;;5063238;23;20042;-57
2023/07/09 00:41:17;;;;;;;12.52;7.65;;;;;;;;;;5002317;28;20096;-57
2023/07/09 00:43:43;;;;;;;10.88;7.95;;;;;;;;;;4998765;28;20039;-58
2023/07/09 00:46:12;;;;;;;12.82;8.55;;;;;;;;;;4981022;28;20061;-57
2023/07/09 00:48:38;;;;;;;11.63;8.50;;;;;;;;;;4984296;28;20093;-57
2023/07/09 00:51:09;;;;;;;11.50;8.40;;;;;;;;;;4984303;28;20046;-57
2023/07/09 00:53:36;;;;;;;11.45;8.45;;;;;;;;;;4986161;28;20095;-57
2023/07/09 00:56:05;;;;;;;12.82;8.18;;;;;;;;;;4980825;28;20039;-57
2023/07/09 00:58:32;;;;;;;14.02;8.68;;;;;;;;;;4982807;28;20365;-56
2023/07/09 01:01:01;;;;;;;12.60;8.75;;;;;;;;;;4982938;28;20551;-56
2023/07/09 01:03:58;;;;;;;11.32;8.60;;;;;;;;;;4987346;28;20038;-58
2023/07/09 01:06:34;;;;;;;11.80;8.43;;;;;;;;;;4963622;28;20063;-58
2023/07/09 01:09:01;;;;;;;10.70;8.45;;;;;;;;;;5054353;23;20089;-58
2023/07/09 01:11:27;;;;;;;12.95;9.05;;;;;;;;;;4980679;28;20504;-58
2023/07/09 01:13:56;;;;;;;12.70;8.88;;;;;;;;;;5011406;23;20582;-57
2023/07/09 01:16:24;;;;;;;12.73;9.35;;;;;;;;;;4997255;28;20453;-57
2023/07/09 01:18:51;;;;;;;12.75;8.52;;;;;;;;;;4994763;28;20073;-57
2023/07/09 01:21:17;;;;;;;13.38;9.35;;;;;;;;;;5005685;28;20064;-56
2023/07/09 01:23:46;;;;;;;11.98;9.68;;;;;;;;;;4993562;28;20492;-57
2023/07/09 01:26:14;;;;;;;13.75;8.65;;;;;;;;;;5009833;23;20065;-57
2023/07/09 01:28:43;;;;;;;11.57;9.25;;;;;;;;;;4982740;28;20043;-57
2023/07/09 01:31:15;;;;;;;12.68;9.63;;;;;;;;;;4986072;28;20050;-57
2023/07/09 01:33:44;;;;;;;11.57;8.68;;;;;;;;;;4975242;28;20047;-58
2023/07/09 01:36:13;;;;;;;13.27;9.40;;;;;;;;;;4964004;28;20101;-57
2023/07/09 01:38:39;;;;;;;11.85;8.77;;;;;;;;;;4968221;28;20500;-58
2023/07/09 01:41:06;;;;;;;12.57;8.98;;;;;;;;;;4966260;28;20121;-57
2023/07/09 01:43:32;;;;;;;14.48;9.65;;;;;;;;;;4968802;28;20066;-57
2023/07/09 01:45:58;;;;;;;12.48;9.00;;;;;;;;;;4967604;28;20089;-57
2023/07/09 01:48:25;;;;;;;12.95;9.95;;;;;;;;;;4996249;23;20062;-60
2023/07/09 01:50:52;;;;;;;11.25;8.55;;;;;;;;;;4997885;28;20128;-59
2023/07/09 01:53:20;;;;;;;17.13;9.60;;;;;;;;;;4992314;28;20162;-59
2023/07/09 01:55:46;;;;;;;11.10;8.98;;;;;;;;;;5004314;28;20508;-59
2023/07/09 01:58:12;;;;;;;12.60;9.55;;;;;;;;;;5004440;28;20042;-58
2023/07/09 02:00:41;;;;;;;11.50;8.52;;;;;;;;;;4998663;28;20038;-59
2023/07/09 02:03:08;;;;;;;12.38;9.20;;;;;;;;;;5005801;28;20038;-59
2023/07/09 02:05:36;;;;;;;12.98;9.15;;;;;;;;;;4996868;28;20034;-59
2023/07/09 02:08:04;;;;;;;13.25;9.30;;;;;;;;;;5001062;28;20126;-58
2023/07/09 02:10:32;;;;;;;14.15;9.27;;;;;;;;;;5008709;28;20046;-59
2023/07/09 02:13:00;;;;;;;11.45;9.20;;;;;;;;;;5004349;28;20125;-59
2023/07/09 02:15:33;;;;;;;12.70;8.80;;;;;;;;;;4994195;28;20054;-59
2023/07/09 02:23:10;;;;;;;13.13;10.05;;;;;;;;;;4999524;28;20522;-57
2023/07/09 02:25:38;;;;;;;12.70;9.35;;;;;;;;;;5011775;28;20418;-57
2023/07/09 02:28:06;;;;;;;12.95;8.95;;;;;;;;;;5013409;28;20046;-56
2023/07/09 02:30:32;;;;;;;13.70;9.23;;;;;;;;;;5010431;28;20137;-56
2023/07/09 02:32:58;;;;;;;13.48;9.35;;;;;;;;;;5007480;28;20041;-57
2023/07/09 02:35:24;;;;;;;12.85;8.63;;;;;;;;;;5007905;28;20422;-56
2023/07/09 02:37:52;;;;;;;11.88;9.48;;;;;;;;;;5009823;28;20033;-56
2023/07/09 02:40:20;;;;;;;12.60;9.40;;;;;;;;;;5003280;28;20038;-56
2023/07/09 02:42:47;;;;;;;17.52;8.82;;;;;;;;;;5008781;28;20056;-56
2023/07/09 02:45:13;;;;;;;12.20;9.38;;;;;;;;;;5009893;28;20103;-56
2023/07/09 02:47:40;;;;;;;13.05;9.57;;;;;;;;;;5007453;28;20049;-56
2023/07/09 02:50:06;;;;;;;13.65;9.75;;;;;;;;;;5011050;28;20651;-56
2023/07/09 02:52:44;;;;;;;14.10;10.10;;;;;;;;;;5131313;23;20109;-84
2023/07/09 02:55:24;;;;;;;14.38;9.32;;;;;;;;;;5010925;28;20057;-83
2023/07/09 02:58:03;;;;;;;12.20;9.45;;;;;;;;;;4980423;28;20046;-83
2023/07/09 03:00:30;;;;;;;12.25;9.05;;;;;;;;;;4994582;28;20038;-83
2023/07/09 03:02:59;;;;;;;13.73;9.80;;;;;;;;;;4993132;28;20030;-83
2023/07/09 03:05:49;;;;;;;15.55;10.18;;;;;;;;;;4989833;28;20102;-82
2023/07/09 03:08:24;;;;;;;11.15;8.75;;;;;;;;;;4991594;28;20097;-84
2023/07/09 03:10:50;;;;;;;13.15;9.63;;;;;;;;;;4977109;28;20073;-83
2023/07/09 03:13:32;;;;;;;15.05;9.57;;;;;;;;;;4994030;28;20082;-83
2023/07/09 03:16:12;;;;;;;16.20;10.55;;;;;;;;;;4971658;28;20046;-82
2023/07/09 03:18:55;;;;;;;13.50;9.80;;;;;;;;;;4991089;28;20046;-83
2023/07/09 03:21:27;;;;;;;14.77;9.52;;;;;;;;;;4985122;28;20046;-82
2023/07/09 03:23:55;;;;;;;12.18;9.05;;;;;;;;;;4968724;23;20035;-57
2023/07/09 03:26:22;;;;;;;12.25;9.20;;;;;;;;;;4946118;28;20035;-58
2023/07/09 03:28:48;;;;;;;13.57;9.40;;;;;;;;;;4951612;28;20035;-57
2023/07/09 03:31:16;;;;;;;14.63;9.48;;;;;;;;;;4951591;28;20414;-57
2023/07/09 03:33:42;;;;;;;13.93;10.05;;;;;;;;;;4950507;28;20043;-56
2023/07/09 03:36:08;;;;;;;11.90;9.48;;;;;;;;;;4948725;28;20038;-57
2023/07/09 03:38:34;;;;;;;14.85;10.18;;;;;;;;;;4950128;28;20209;-57
2023/07/09 03:41:00;;;;;;;13.63;9.93;;;;;;;;;;4949676;28;20466;-56
2023/07/09 03:43:26;;;;;;;13.05;9.65;;;;;;;;;;4949792;28;20394;-56
2023/07/09 03:45:52;;;;;;;13.02;9.98;;;;;;;;;;4951554;28;20058;-58
2023/07/09 03:48:19;;;;;;;12.60;9.98;;;;;;;;;;4950550;28;20043;-56
2023/07/09 03:50:46;;;;;;;14.30;10.68;;;;;;;;;;4952255;28;20417;-55
2023/07/09 03:53:12;;;;;;;12.80;10.70;;;;;;;;;;4952866;28;20070;-58
2023/07/09 03:55:38;;;;;;;15.00;10.27;;;;;;;;;;4949126;28;20125;-56
2023/07/09 03:58:07;;;;;;;13.35;10.15;;;;;;;;;;4950261;28;20127;-55
2023/07/09 04:00:33;;;;;;;13.98;10.65;;;;;;;;;;4953811;28;20043;-57
2023/07/09 04:03:00;;;;;;;14.48;10.35;;;;;;;;;;4953809;28;20506;-56
2023/07/09 04:05:28;;;;;;;11.85;9.82;;;;;;;;;;4952076;28;20046;-56
2023/07/09 04:07:56;;;;;;;15.60;9.98;;;;;;;;;;4954992;28;20085;-54
2023/07/09 04:10:22;;;;;;;16.95;10.95;;;;;;;;;;4955041;28;20058;-54
2023/07/09 04:12:48;;;;;;;13.82;9.88;;;;;;;;;;4950922;28;20047;-55
2023/07/09 04:15:14;;;;;;;13.68;10.82;;;;;;;;;;4956638;28;20098;-57
2023/07/09 04:17:41;;;;;;;13.65;10.70;;;;;;;;;;4955680;28;20105;-56
2023/07/09 04:20:10;;;;;;;14.63;10.40;;;;;;;;;;4951459;28;20035;-58
2023/07/09 04:22:36;;;;;;;12.90;9.98;;;;;;;;;;4953819;28;20409;-58
2023/07/09 04:25:03;;;;;;;13.98;10.15;;;;;;;;;;4957510;28;21155;-58
2023/07/09 04:27:29;;;;;;;13.90;10.48;;;;;;;;;;4951239;28;20046;-56
2023/07/09 04:29:57;;;;;;;13.20;9.77;;;;;;;;;;4955300;28;20042;-57
2023/07/09 04:32:23;;;;;;;13.85;10.07;;;;;;;;;;4951441;28;20394;-57
2023/07/09 04:34:51;;;;;;;15.27;11.18;;;;;;;;;;4964093;28;20139;-58
2023/07/09 04:37:17;;;;;;;12.10;9.43;;;;;;;;;;4948470;28;20039;-58
2023/07/09 04:39:44;;;;;;;12.48;9.75;;;;;;;;;;4950283;28;20102;-58
2023/07/09 04:42:16;;;;;;;15.13;10.23;;;;;;;;;;4944390;28;20046;-57
2023/07/09 04:44:42;;;;;;;13.40;10.15;;;;;;;;;;4951165;28;20050;-58
2023/07/09 04:47:08;;;;;;;15.70;11.13;;;;;;;;;;4950387;28;20409;-58
2023/07/09 04:49:35;;;;;;;16.33;10.98;;;;;;;;;;4947789;28;20043;-57
2023/07/09 04:52:01;;;;;;;15.13;10.05;;;;;;;;;;4949247;28;20078;-56
2023/07/09 04:54:27;;;;;;;11.45;9.50;;;;;;;;;;4950776;28;20046;-56
2023/07/09 04:56:55;;;;;;;14.25;9.85;;;;;;;;;;4952331;28;20126;-57
2023/07/09 04:59:22;;;;;;;11.82;10.13;;;;;;;;;;4951730;28;20047;-58
2023/07/09 05:01:49;;;;;;;11.77;9.40;;;;;;;;;;4960045;28;20415;-57
2023/07/09 05:04:15;;;;;;;13.23;9.93;;;;;;;;;;4950486;28;20039;-56
2023/07/09 05:06:42;;;;;;;13.38;10.70;;;;;;;;;;4953952;28;20040;-57
2023/07/09 05:09:08;;;;;;;14.25;9.95;;;;;;;;;;4950454;28;20094;-57
2023/07/09 05:11:36;;;;;;;13.00;10.07;;;;;;;;;;4949372;28;20057;-57
2023/07/09 05:14:04;;;;;;;15.98;10.25;;;;;;;;;;4947190;28;20137;-57
2023/07/09 05:16:30;;;;;;;13.05;9.85;;;;;;;;;;4956618;28;20130;-56
2023/07/09 05:18:56;;;;;;;13.77;10.15;;;;;;;;;;4949150;28;20035;-58
2023/07/09 05:21:27;;;;;;;12.52;9.95;;;;;;;;;;4950721;28;20046;-59
2023/07/09 05:23:54;;;;;;;14.00;10.05;;;;;;;;;;4946532;28;20110;-59
2023/07/09 05:26:21;;;;;;;13.00;9.63;;;;;;;;;;4947209;28;20512;-57
2023/07/09 05:28:48;;;;;;;13.85;10.07;;;;;;;;;;4946387;28;20054;-58
2023/07/09 05:31:15;;;;;;;14.05;10.70;;;;;;;;;;4944990;28;20094;-57
2023/07/09 05:33:42;;;;;;;13.55;10.02;;;;;;;;;;4957103;28;20051;-59
2023/07/09 05:36:15;;;;;;;13.20;10.05;;;;;;;;;;4956041;28;20105;-59
2023/07/09 05:38:49;;;;;;;14.23;9.88;;;;;;;;;;4958746;28;20042;-58
2023/07/09 05:41:17;;;;;;;13.65;10.20;;;;;;;;;;4954642;28;20149;-58
2023/07/09 05:43:44;;;;;;;13.05;9.98;;;;;;;;;;4957555;28;20062;-58
2023/07/09 05:46:11;;;;;;;13.80;10.02;;;;;;;;;;4953029;28;20046;-57
2023/07/09 05:48:37;;;;;;;15.00;9.88;;;;;;;;;;4954015;28;20087;-59
2023/07/09 05:51:04;;;;;;;16.05;10.85;;;;;;;;;;4960421;28;20512;-58
2023/07/09 05:53:33;;;;;;;13.98;10.32;;;;;;;;;;4954898;28;20171;-58
2023/07/09 05:55:59;;;;;;;13.98;10.50;;;21.60;43.70;;;;;;4953041;28;20405;-58
2023/07/09 05:58:26;;;;;;;13.23;10.98;;;;;;;;;;4955035;28;20047;-58
2023/07/09 06:00:57;;;;;;;14.90;11.63;;;;;;;;;;4955259;28;20057;-58
2023/07/09 06:03:26;;;;;;;13.55;10.32;;;;;;;;;;4958328;28;20180;-57
2023/07/09 06:05:57;;;;;;;15.65;11.10;;;;;;;;;;4956414;28;20039;-59
2023/07/09 06:08:24;;;;;;;15.18;10.98;;;;;;;;;;4956329;28;20066;-58
2023/07/09 06:10:56;;;;;;;13.25;10.68;;;;;;;;;;4955771;28;20043;-58
2023/07/09 06:13:23;;;;;;;14.85;10.82;;;;;;;;;;4956843;28;20042;-58
2023/07/09 06:15:50;;;;;;;14.43;10.73;;;;;;;;;;4955687;28;20081;-58
2023/07/09 06:18:16;;;;;;;15.00;11.43;;;;;;;;;;4954601;28;20066;-58
2023/07/09 06:20:49;;;;;;;14.38;11.82;;;;;;;;;;4967856;28;20040;-57
2023/07/09 06:23:16;;;;;;;14.38;10.30;;;;;;;;;;4953775;28;20043;-59
2023/07/09 06:25:47;;;;;;;14.10;10.85;;;;;;;;;;4957752;28;20481;-58
2023/07/09 06:28:14;;;;;;;14.55;12.05;;;;;;;;;;4952371;28;20202;-59
2023/07/09 06:30:41;;;;;;;16.08;11.85;;;;;;;;;;4954249;28;20485;-59
2023/07/09 06:33:08;;;;;;;15.85;10.20;;;;;;;;;;4953800;28;20043;-58
2023/07/09 06:35:35;;;;;;;14.40;10.85;;;;;;;;;;4952811;28;20058;-59
2023/07/09 06:38:02;;;;;;;17.75;12.05;;;;;;;;;;4955548;28;20122;-58
2023/07/09 06:40:29;;;;;;;14.75;10.75;;;;;;;;;;4961765;28;20449;-58
2023/07/09 06:42:55;;;;;;;13.48;10.73;;;22.80;20.50;;;;;;4950171;28;20135;-59
2023/07/09 06:45:21;;;;;;;15.60;11.63;;;22.90;5.00;;;;;;4951737;28;20118;-59
2023/07/09 06:47:49;;;;;;;16.52;12.25;;;23.30;14.50;;;;;;4953071;28;20087;-60
2023/07/09 06:50:16;;;;;;;16.05;12.55;;;;;;;;;;4956349;28;20749;-60
2023/07/09 06:52:44;;;;;;;16.92;12.40;;;;;;;;;;4950049;28;20497;-59
2023/07/09 06:55:09;;;;;;;15.65;12.07;;;23.30;1.00;;;;;;4950519;28;20042;-59
2023/07/09 06:57:36;;;;;;;16.17;12.57;;;;;;;;;;4943780;28;20099;-59
2023/07/09 07:00:03;;;;;;;16.60;12.38;;;23.60;1.00;;;;;;4944166;28;20051;-59
2023/07/09 07:02:30;;;;;;;16.70;12.20;;;;;;;;;;4946300;28;20044;-60
2023/07/09 07:04:55;;;;;;;15.10;12.35;;;23.60;1.00;;;;;;4943869;28;20126;-58
2023/07/09 07:07:21;;;;;;;16.50;12.70;;;23.40;1.00;;;;;;4951046;28;20455;-60
2023/07/09 07:09:47;;;;;;;16.45;12.15;;;;;;;;;;4946721;28;20035;-59
2023/07/09 07:12:21;;;;;;;17.83;12.90;;;;;;;;;;4950712;28;20054;-60
2023/07/09 07:14:48;;;;;;;17.05;12.10;;;;;;;;;;4949452;28;20046;-60
2023/07/09 07:17:15;;;;;;;18.42;12.27;;;;;;;;;;4941972;28;20270;-59
2023/07/09 07:19:42;;;;;;;18.85;13.07;;;;;;;;;;4923141;29;20036;-60
2023/07/09 07:22:08;;;;;;;16.33;13.45;;;24.10;1.00;;;;;;4942039;28;20040;-59
2023/07/09 07:24:34;;;;;;;17.00;13.02;;;24.30;1.00;;;;;;4947885;28;20109;-60
2023/07/09 07:26:59;;;;;;;16.45;12.65;;;24.40;1.00;;;;;;4943087;28;20122;-60
2023/07/09 07:29:25;;;;;;;20.52;13.23;;;24.40;1.00;;;;;;4947528;28;20141;-60
2023/07/09 07:31:50;;;;;;;18.42;15.05;;;24.50;1.00;;;;;;4946295;28;20397;-60
2023/07/09 07:34:16;;;;;;;17.67;13.60;;;24.50;1.00;;;;;;4948565;28;20439;-59
2023/07/09 07:36:43;;;;;;;17.92;14.23;;;24.70;99.90;;;;;;4949925;28;20039;-59
2023/07/09 07:39:10;;;;;;;19.65;15.25;;;;;;;;;;4951712;28;20054;-60
2023/07/09 07:41:36;;;;;;;20.50;17.00;;;24.90;1.00;;;;;;4948241;28;20035;-59
2023/07/09 07:44:02;;;;;;;23.80;17.90;;;25.00;99.90;;;;;;4951060;28;20039;-60
2023/07/09 07:46:29;;;;;;;20.88;16.52;;;24.70;99.90;;;;;;4945502;28;20121;-60
2023/07/09 07:48:55;;;;;;;18.65;15.85;;;24.80;99.90;;;;;;4945755;28;20043;-59
2023/07/09 07:51:22;;;;;;;18.90;13.88;;;25.00;99.90;;;;;;4948363;28;20065;-59
2023/07/09 07:53:48;;;;;;;18.75;15.93;;;25.20;99.90;;;;;;4951572;28;20122;-60
2023/07/09 07:56:14;;;;;;;22.10;15.77;;;25.30;99.90;;;;;;4948414;28;20035;-60
2023/07/09 07:58:40;;;;;;;26.25;16.27;;;25.50;99.90;;;;;;4950181;28;20133;-60
2023/07/09 08:01:06;;;;;;;19.13;15.40;;;25.00;99.90;;;;;;4951842;28;20102;-60
2023/07/09 08:03:31;;;;;;;18.30;14.68;;;25.60;99.90;;;;;;4954426;28;20125;-60
2023/07/09 08:05:57;;;;;;;17.10;14.20;;;25.20;99.90;;;;;;4950032;28;20481;-58
2023/07/09 08:08:23;;;;;;;14.20;12.02;;;25.10;99.90;;;;;;4951453;28;20139;-60
2023/07/09 08:11:00;;;;;;;16.13;11.63;;;25.10;97.90;;;;;;4951127;28;20039;-60
2023/07/09 08:13:26;;;;;;;13.57;10.45;;;25.30;1.00;;;;;;4951963;28;20043;-59
2023/07/09 08:15:51;;;;;;;16.48;10.55;;;25.70;99.90;;;;;;4951723;28;20039;-60
2023/07/09 08:18:17;;;;;;;17.17;12.35;;;;;;;;;;4951195;28;20043;-59
2023/07/09 08:20:44;;;;;;;13.75;10.02;;;25.50;99.90;;;;;;4951816;28;20065;-59
2023/07/09 08:23:10;;;;;;;12.52;10.10;;;25.10;99.90;;;;;;4949357;28;20090;-59
2023/07/09 08:25:36;;;;;;;13.68;9.55;;;25.60;99.90;;;;;;4951670;28;20813;-60
2023/07/09 08:28:01;;;;;;;15.98;9.88;;;25.40;99.90;;;;;;4950526;28;20043;-60
2023/07/09 08:30:27;;;;;;;14.00;10.15;;;25.20;99.90;;;;;;4951338;28;20039;-60
2023/07/09 08:32:53;;;;;;;13.60;9.27;;;25.60;99.90;;;;;;4948682;28;20481;-59
2023/07/09 08:35:18;;;;;;;14.52;11.23;;;25.30;99.90;;;;;;4950137;28;20124;-60
2023/07/09 08:37:44;;;;;;;13.63;10.15;;;25.30;99.90;;;;;;4935019;28;20044;-60
2023/07/09 08:40:15;;;;;;;15.23;10.90;;;25.60;99.90;;;;;;4944429;28;20456;-59
2023/07/09 08:42:45;;;;;;;15.32;10.50;;;25.60;99.90;;;;;;4940103;28;20063;-59
2023/07/09 08:45:29;;;;;;;14.30;11.10;;;25.40;99.90;;;;;;4943804;28;20122;-59
2023/07/09 08:48:13;;;;;;;13.07;10.55;;;;;;;;;;4941309;28;20524;-59
2023/07/09 08:50:43;;;;;;;15.15;11.23;;;;;;;;;;4962282;28;20200;-60
2023/07/09 08:53:27;;;;;;;16.38;11.00;;;;;;;;;;4947164;28;20421;-60
2023/07/09 08:55:52;;;;;;;14.38;10.43;;;25.30;1.00;;;;;;4941371;28;20058;-60
2023/07/09 08:58:24;;;;;;;15.48;10.75;;;;;;;;;;4945845;28;20382;-59
2023/07/09 09:00:54;;;;;;;15.13;11.48;;;;;;;;;;4940242;28;20052;-60
2023/07/09 09:03:24;;;;;;;14.18;10.43;;;;;;;;;;4946783;28;20058;-59
2023/07/09 09:05:50;;;;;;;13.18;9.68;;;25.70;1.00;;;;;;4926520;29;20051;-60
2023/07/09 09:08:30;;;;;;;12.75;9.90;;;;;;;;;;4941686;28;20046;-59
2023/07/09 09:11:02;;;;;;;12.98;8.18;;;;;;;;;;4945740;28;20027;-59
2023/07/09 09:13:29;;;;;;;14.23;8.30;;;25.30;1.00;;;;;;4950595;28;20404;-60
2023/07/09 09:15:57;;;;;;;14.77;7.55;;;;;;;;;;4941990;28;21081;-60
2023/07/09 09:18:25;;;;;;;13.13;7.40;;;25.30;99.90;;;;;;4945806;28;20082;-60
2023/07/09 09:21:14;;;;;;;11.35;7.63;;;;;;;;;;4940537;28;20035;-60
2023/07/09 09:23:46;;;;;;;12.15;6.70;;;25.60;99.90;;;;;;4934437;28;20047;-60
2023/07/09 09:26:21;;;;;;;11.38;6.60;;;25.40;99.90;;;;;;4940385;28;20169;-60
2023/07/09 09:28:47;;;;;;;12.27;6.93;;;25.70;99.90;;;;;;4941032;28;20047;-60
2023/07/09 09:31:14;;;;;;;13.82;6.97;;;25.50;99.90;;;;;;4951155;28;20039;-60
2023/07/09 09:33:45;;;;;;;9.52;6.75;;;25.80;99.90;;;;;;4938722;28;20102;-59
2023/07/09 09:36:17;;;;;;;10.98;6.45;;;25.60;99.90;;;;;;4943584;28;20055;-60
2023/07/09 09:38:44;;;;;;;9.35;5.82;;;25.20;99.90;;;;;;4923996;29;20471;-60
2023/07/09 09:41:13;;;;;;;9.90;6.15;;;25.50;99.90;;;;;;4949568;28;20445;-60
2023/07/09 09:43:42;;;;;;;11.40;6.03;;;25.70;99.90;;;;;;4942641;28;20043;-60
2023/07/09 09:46:09;;;;;;;10.77;5.82;;;25.30;99.90;;;;;;4945016;28;20118;-60
2023/07/09 09:48:37;;;;;;;10.98;6.70;;;25.60;99.90;;;;;;4933513;28;20458;-60
2023/07/09 09:51:06;;;;;;;11.40;6.30;;;25.60;99.90;;;;;;4943612;28;20113;-61
2023/07/09 09:53:38;;;;;;;10.70;6.15;;;25.70;99.90;;;;;;4942968;28;20059;-61
2023/07/09 09:56:10;;;;;;;11.57;5.80;;;25.70;99.90;;;;;;4961091;28;20050;-60
2023/07/09 09:58:40;;;;;;;10.43;5.63;;;25.60;99.90;;;;;;4946742;28;20098;-60
2023/07/09 10:01:15;;;;;;;10.38;5.63;;;25.80;99.90;;;;;;4937381;28;20138;-60
2023/07/09 10:03:41;;;;;;;8.85;4.90;;;26.10;99.90;;;;;;4945980;28;20043;-60
2023/07/09 10:06:17;;;;;;;9.18;5.05;;;26.10;99.90;;;;;;4945290;28;20110;-59
2023/07/09 10:09:00;;;;;;;10.70;5.18;;;26.40;99.90;;;;;;4941552;28;20054;-58
2023/07/09 10:11:47;;;;;;;9.83;5.00;;;26.10;99.90;;;;;;4943296;28;20036;-58
2023/07/09 10:14:16;;;;;;;9.18;4.78;;;;;;;;;;4934452;28;20090;-60
2023/07/09 10:16:45;;;;;;;8.60;4.97;;;;;;;;;;4938209;28;20054;-60
2023/07/09 10:19:33;;;;;;;8.95;4.80;;;;;;;;;;4941950;28;20066;-60
2023/07/09 10:22:06;;;;;;;12.10;5.15;;;;;;;;;;4940977;28;20040;-59
2023/07/09 10:24:47;;;;;;;9.18;4.40;;;26.60;99.90;;;;;;4942079;28;20417;-60
2023/07/09 10:27:17;;;;;;;9.95;4.90;;;;;;;;;;4947268;28;20038;-59
2023/07/09 10:29:53;;;;;;;9.02;4.40;;;;;;;;;;4942088;28;20039;-59
2023/07/09 10:32:32;;;;;;;7.85;4.38;;;;;;;;;;4947238;28;20474;-59
2023/07/09 10:35:05;;;;;;;8.50;4.65;;;;;;;;;;4946348;28;20094;-59
2023/07/09 10:37:50;;;;;;;7.75;4.65;;;;;;;;;;4950914;28;20374;-58
2023/07/09 10:40:19;;;;;;;8.80;4.65;;;;;;;;;;4945808;28;20482;-59
2023/07/09 10:42:50;;;;;;;7.97;4.53;;;26.70;99.90;;;;;;4945613;28;20043;-58
2023/07/09 10:45:27;;;;;;;10.00;4.88;;;;;;;;;;4944828;28;20113;-58
2023/07/09 10:47:59;;;;;;;8.93;4.15;;;;;;;;;;4946536;28;20041;-59
2023/07/09 10:50:36;;;;;;;9.20;4.18;;;27.00;99.90;;;;;;4934646;28;20047;-59
2023/07/09 10:53:23;;;;;;;9.38;4.20;;;27.50;99.90;;;;;;4944638;28;20047;-59
2023/07/09 10:56:23;;;;;;;8.52;4.55;;;;;;;;;;4937384;28;20065;-59
2023/07/09 10:59:08;;;;;;;8.30;3.97;;;;;;;;;;4915369;28;20051;-59
2023/07/09 11:01:39;;;;;;;10.00;4.55;;;;;;;;;;4942693;28;20047;-60
2023/07/09 11:04:25;;;;;;;9.93;4.88;;;;;;;;;;4940260;28;20078;-60
2023/07/09 11:06:53;;;;;;;8.77;4.22;;;27.90;85.70;;;;;;4947831;28;20130;-58
2023/07/09 11:09:33;;;;;;;8.15;4.28;;;28.10;85.60;;;;;;4930276;28;20040;-59
2023/07/09 11:12:15;;;;;;;7.35;4.82;;;;;;;;;;4939745;28;20084;-58
2023/07/09 11:14:47;;;;;;;11.00;5.00;;;28.20;75.00;;;;;;4942549;28;20051;-59
2023/07/09 11:17:19;;;;;;;9.73;4.85;;;28.20;79.20;;;;;;4948001;28;20044;-60
2023/07/09 11:20:15;;;;;;;8.38;4.68;;;28.40;75.40;;;;;;4946545;28;20039;-59
2023/07/09 11:22:41;;;;;;;8.50;4.32;;;28.30;77.60;;;;;;4950458;28;20098;-59
2023/07/09 11:25:10;;;;;;;8.43;4.60;;;28.50;57.00;;;;;;4947997;28;20039;-59
2023/07/09 11:27:49;;;;;;;8.68;4.32;;;28.80;27.40;;;;;;4948982;28;20409;-59
2023/07/09 11:30:19;;;;;;;11.88;4.30;;;28.30;25.80;;;;;;4949718;28;20035;-60
2023/07/09 11:32:46;;;;;;;7.15;4.35;;;28.70;20.00;;;;;;4947471;28;20078;-59
2023/07/09 11:35:23;;;;;;;9.05;4.32;;;;;;;;;;4946695;28;20122;-60
2023/07/09 11:37:49;;;;;;;9.43;3.80;;;29.00;1.00;;;;;;4934389;28;20270;-59
2023/07/09 11:40:18;;;;;;;7.53;4.18;;;29.00;1.00;;;;;;4939955;28;20035;-60
2023/07/09 11:42:56;;;;;;;8.68;4.35;;;28.80;1.00;;;;;;4941810;28;20101;-59
2023/07/09 11:45:30;;;;;;;7.78;4.30;;;29.50;5.10;;;;;;4936673;28;20059;-59
2023/07/09 11:48:17;;;;;;;;;;;29.20;1.00;;;;;;4940601;28;20070;-59
2023/07/09 11:50:48;;;;;;;6.90;3.53;;;29.10;1.00;;;;;;4947947;28;20495;-60
2023/07/09 11:53:46;;;;;;;7.72;4.20;;;29.30;1.00;;;;;;4942822;28;20043;-57
2023/07/09 11:56:12;;;;;;;6.93;3.97;;;29.20;1.00;;;;;;4945184;28;20050;-59
2023/07/09 11:58:49;;;;;;;6.95;3.90;;;29.60;1.00;;;;;;4952141;28;20043;-59
2023/07/09 12:01:20;;;;;;;9.68;4.25;;;30.20;1.00;;;;;;4951193;28;20035;-59
2023/07/09 12:03:47;;;;;;;7.30;4.05;;;29.90;1.00;;;;;;4945595;28;20049;-59
2023/07/09 12:06:21;;;;;;;8.10;4.05;;;30.40;1.00;;;;;;4948037;28;20532;-60
2023/07/09 12:08:48;;;;;;;7.82;4.57;;;30.60;1.00;;;;;;4941370;28;20336;-59
2023/07/09 12:11:22;;;;;;;8.00;4.10;;;30.80;1.00;;;;;;4941378;28;20027;-60
2023/07/09 12:13:48;;;;;;;6.72;3.90;;;30.90;1.00;;;;;;4949903;28;20043;-60
2023/07/09 12:16:33;;;;;;;8.02;3.90;;;31.10;1.00;;;;;;4949408;28;20050;-60
2023/07/09 12:18:59;;;;;;;7.97;3.80;;;31.20;1.00;;;;;;4947073;28;20031;-59
2023/07/09 12:21:25;;;;;;;7.00;3.90;;;31.60;1.00;;;;;;4954839;28;20053;-60
2023/07/09 12:23:53;;;;;;;8.45;4.25;;;31.60;1.00;;;;;;4948627;28;20557;-58
2023/07/09 12:26:20;;;;;;;8.68;3.92;;;31.90;1.00;;;;;;4942198;28;20042;-59
2023/07/09 12:28:57;;;;;;;8.48;4.70;;;31.80;1.00;;;;;;4946784;28;20047;-59
2023/07/09 12:31:28;;;;;;;7.03;4.07;;;31.80;1.00;;;;;;4948262;28;20058;-60
2023/07/09 12:33:57;;;;;;;7.28;4.18;;;31.90;1.00;;;;;;4946144;28;20466;-59
2023/07/09 12:36:24;;;;;;;7.53;4.57;;;32.40;1.00;;;;;;4950850;28;20047;-60
2023/07/09 12:38:53;;;;;;;9.25;4.43;;;32.40;1.00;;;;;;4949042;28;20450;-60
2023/07/09 12:41:25;;;;;;;9.20;5.53;;;32.50;1.00;;;;;;4949530;28;20091;-60
2023/07/09 12:43:56;;;;;;;7.43;3.95;;;33.00;1.00;;;;;;4949259;28;20411;-59
2023/07/09 12:46:23;;;;;;;8.02;4.03;;;33.40;1.00;;;;;;4950228;28;20054;-60
2023/07/09 12:48:52;;;;;;;6.93;4.25;;;34.20;1.00;;;;;;4951110;28;20050;-59
2023/07/09 12:51:27;;;;;;;9.20;4.32;;;34.30;1.00;;;;;;4949717;28;20031;-60
2023/07/09 12:54:12;;;;;;;8.75;4.65;;;34.60;1.00;;;;;;4946354;28;20050;-60
2023/07/09 12:56:38;;;;;;;7.35;4.13;;;34.90;1.00;;;;;;4939528;28;20048;-58
2023/07/09 12:59:22;;;;;;;7.10;4.00;;;34.50;1.00;;;;;;4942335;28;20039;-59
2023/07/09 13:02:07;;;;;;;10.77;4.53;;;;;;;;;;4944458;28;20378;-60
2023/07/09 13:04:38;;;;;;;6.75;4.07;;;33.80;99.90;;;;;;4949118;28;20092;-60
2023/07/09 13:07:04;;;;;;;8.27;4.13;;;33.60;99.90;;;;;;4937952;28;20546;-59
2023/07/09 13:09:31;;;;;;;8.05;4.95;;;32.90;99.90;;;;;;4953465;28;20042;-60
2023/07/09 13:11:58;;;;;;;7.38;4.53;;;32.80;99.90;;;;;;4945996;28;20045;-60
2023/07/09 13:14:30;;;;;;;7.82;4.20;;;32.70;99.90;;;;;;4940534;28;20614;-59
2023/07/09 13:17:07;;;;;;;6.53;4.05;;;33.10;99.90;;;;;;4946825;28;20089;-59
2023/07/09 13:19:33;;;;;;;7.18;3.97;;;33.10;99.90;;;;;;4949411;28;20109;-60
2023/07/09 13:21:59;;;;;;;8.00;4.20;;;33.00;99.90;;;;;;4942062;28;20090;-59
2023/07/09 13:24:29;;;;;;;8.20;4.35;;;32.90;99.90;;;;;;4939218;28;20054;-58
2023/07/09 13:26:57;;;;;;;7.90;4.22;;;32.50;99.90;;;;;;4935400;28;20391;-58
2023/07/09 13:29:23;;;;;;;9.52;4.80;;;32.20;99.90;;;;;;4943717;28;20047;-59
2023/07/09 13:31:49;;;;;;;9.85;4.88;;;32.50;99.90;;;;;;4948229;28;20211;-58
2023/07/09 13:34:18;;;;;;;8.40;5.00;;;32.20;99.90;;;;;;4948724;28;20142;-59
2023/07/09 13:36:44;;;;;;;9.65;5.28;;;32.00;99.90;;;;;;4948974;28;20035;-59
2023/07/09 13:39:15;;;;;;;8.10;4.97;;;;;;;;;;4950414;28;20039;-59
2023/07/09 13:41:46;;;;;;;8.65;4.45;;;31.80;99.90;;;;;;4949842;28;20482;-59
2023/07/09 13:44:18;;;;;;;8.88;5.18;;;31.60;99.90;;;;;;4949241;28;20049;-59
2023/07/09 13:46:44;;;;;;;8.73;5.10;;;31.70;99.90;;;;;;4932646;28;20043;-59
2023/07/09 13:49:18;;;;;;;8.27;4.88;;;31.60;99.90;;;;;;4950737;28;20111;-59
2023/07/09 13:51:46;;;;;;;8.80;4.53;;;32.00;99.90;;;;;;4950700;28;20433;-59
2023/07/09 13:54:37;;;;;;;8.18;4.57;;;31.80;99.90;;;;;;4953698;28;20038;-60
2023/07/09 13:57:06;;;;;;;7.53;4.75;;;31.90;99.90;;;;;;4953219;28;20242;-59
2023/07/09 13:59:33;;;;;;;9.23;5.38;;;32.20;99.90;;;;;;4949420;28;20126;-59
2023/07/09 14:01:59;;;;;;;9.43;4.25;;;32.10;99.90;;;;;;4951596;28;20093;-58